METAR Data
IDs: Format: Raw Decoded Include TAF

Data at: 0745 UTC 18 Nov 2018

PAWM 180656Z AUTO 00000KT 10SM -RA SCT025 BKN034 OVC075 01/00 A2942 RMK AO2 RAB51 SLP966 P0000 T00110000 FZRANO
PAWM 180556Z AUTO 36005KT 10SM OVC023 01/00 A2942 RMK AO2 SLP967 60000 T00060000 10011 20000 56007 FZRANO
PAWM 180456Z AUTO 35004KT 10SM OVC021 01/00 A2942 RMK AO2 SLP967 T00060000 FZRANO
PAWM 180356Z AUTO 34004KT 10SM OVC017 01/M01 A2943 RMK AO2 SLP972 T00061006 FZRANO
PAWM 180256Z AUTO 08006KT 10SM FEW019 OVC028 01/00 A2944 RMK AO2 SLP974 60000 T00060000 57011 FZRANO
PAWM 180156Z AUTO 36005KT 10SM OVC018 01/00 A2945 RMK AO2 SLP978 T00060000 FZRANO
PAWM 180114Z AUTO 35004KT 8SM OVC020 00/M01 A2946 RMK AO2 FZRANO
PAWM 180107Z AUTO 35005KT 2SM BR OVC020 00/M01 A2946 RMK AO2 FZRANO
PAWM 180104Z AUTO 35005KT 1SM BR OVC020 00/M01 A2946 RMK AO2 FZRANO
PAWM 180056Z AUTO 35006KT 1/2SM FG OVC022 00/M01 A2946 RMK AO2 RAE12 SLP981 P0000 T00001006 FZRANO
PAWM 180032Z AUTO 34005KT 1/4SM FG OVC022 01/M01 A2947 RMK AO2 RAE12 P0000 FZRANO
PAWM 180027Z AUTO 34004KT 3/4SM BR BKN019 OVC026 01/M01 A2947 RMK AO2 RAE12 P0000 FZRANO
PAWM 172356Z AUTO 00000KT 8SM -RA OVC017 01/M01 A2947 RMK AO2 RAB56 SLP985 P0000 60000 T00061006 10006 20006 57010 FZRANO
PAWM 172256Z AUTO 36003KT 10SM OVC015 01/M01 A2948 RMK AO2 RAE15 SLP989 P0000 T00061006 FZRANO
PAWM 172156Z AUTO 12008KT 9SM -RA OVC017 01/M01 A2949 RMK AO2 RAE2058B55SNB2058E55 SLP991 P0000 T00061006 FZRANO
PAWM 172056Z AUTO 11007KT 8SM -RA OVC015 01/M01 A2950 RMK AO2 RAB1959E27B52SNE1959B27E52 SLP995 P0000 60000 T00061006 58002 FZRANO
PAWM 171956Z AUTO 10009KT 8SM -SN OVC017 01/M01 A2950 RMK AO2 RAE03SNB03 SLP995 P0000 T00061006 FZRANO
PAWM 171856Z AUTO 12007KT 10SM -RA OVC015 01/M01 A2951 RMK AO2 RAB46SNE46 SLP997 P0000 T00061006 FZRANO
PAWM 171756Z AUTO 10008KT 4SM -SN BR OVC015 01/M01 A2951 RMK AO2 RAE44SNB44 SLP997 P0000 60000 T00061006 10011 21006 56006 FZRANO
PAWM 171656Z AUTO 10009KT 10SM -RA OVC017 01/00 A2951 RMK AO2 RAB09SNE09 SLP999 P0000 T00110000 FZRANO
PAWM 171616Z AUTO 11009KT 10SM -RA OVC017 01/00 A2951 RMK AO2 RAB09SNE09 P0000 FZRANO
PAWM 171556Z AUTO 11009KT 9SM -SN BKN011 OVC017 01/00 A2951 RMK AO2 RAB40E51 SLP999 P0000 T00060000 FZRANO
PAWM 171456Z AUTO 12006KT 9SM -SN OVC011 01/M01 A2952 RMK AO2 SLP003 P0000 60000 T00061006 56015 FZRANO
PAWM 171356Z AUTO 10005KT 10SM -SN OVC013 01/00 A2953 RMK AO2 UPE18RAB18E56SNB56 SLP006 P0000 T00060000 FZRANO
PAWM 171308Z AUTO 10007KT 10SM UP OVC013 00/M01 A2955 RMK AO2 P0000 FZRANO
PAWM 171256Z AUTO 08006KT 10SM UP OVC015 00/M01 A2955 RMK AO2 SLP011 P0000 T00001011 FZRANO
PAWM 171156Z AUTO 04005KT 7SM UP OVC015 M01/M01 A2957 RMK AO2 SLP017 P0000 60000 T10061011 11006 21017 58012 FZRANO
PAWM 171135Z AUTO 05004KT 10SM OVC015 M01/M01 A2957 RMK AO2 UPE31 P0000 FZRANO
PAWM 171115Z AUTO 04005KT 10SM UP OVC013 M01/M01 A2958 RMK AO2 P0000 FZRANO
PAWM 171056Z AUTO 01004KT 10SM UP OVC015 M01/M02 A2959 RMK AO2 UPB33SNE33 SLP025 P0000 T10061017 FZRANO
PAWM 171034Z AUTO 03004KT 5SM UP BR SCT009 OVC015 M01/M02 A2959 RMK AO2 UPB33SNE33 P0000 FZRANO
PAWM 171024Z AUTO 04005KT 4SM -SN BR BKN009 OVC015 M01/M02 A2960 RMK AO2 CIG 007V012 P0000 FZRANO
PAWM 171016Z AUTO 04005KT 5SM -SN BR SCT009 BKN015 OVC037 M01/M02 A2960 RMK AO2 P0000 FZRANO
PAWM 171004Z AUTO 03005KT 7SM -SN BKN015 BKN020 OVC041 M02/M02 A2960 RMK AO2 P0000 FZRANO
PAWM 170956Z AUTO 01006KT 7SM -SN SCT017 SCT027 OVC041 M02/M02 A2960 RMK AO2 SLP029 P0000 T10171022 FZRANO
PAWM 170909Z AUTO 01006KT 7SM -SN OVC017 M02/M03 A2962 RMK AO2 P0000 FZRANO
PAWM 170856Z AUTO 36006KT 4SM -SN BR BKN014 OVC019 M02/M03 A2962 RMK AO2 SLP036 P0000 60000 T10171028 410061078 56010 FZRANO
PAWM 170851Z AUTO 01005KT 4SM -SN BR BKN014 BKN019 OVC024 M02/M03 A2962 RMK AO2 P0000 410061078 FZRANO
PAWM 170822Z AUTO 04004KT 3SM -SN BR BKN016 OVC032 M02/M03 A2963 RMK AO2 P0000 FZRANO
PAWM 170811Z AUTO 04004KT 2SM -SN BR BKN016 OVC032 M02/M03 A2963 RMK AO2 VIS 1V5 P0000 FZRANO
PAWM 170756Z AUTO 03004KT 3SM -SN BR OVC018 M01/M02 A2964 RMK AO2 SLP041 P0000 T10111022 FZRANO
PAWM 170556Z AUTO 02004KT 10SM OVC016 M02/M03 A2967 RMK AO2 SLP051 60000 T10171028 11017 21017 56017 FZRANO
PAWM 170546Z AUTO 02005KT 10SM OVC016 M02/M03 A2967 RMK AO2 FZRANO
PAWM 170504Z AUTO 10005KT 10SM OVC014 M02/M03 A2968 RMK AO2 FZRANO
PAWM 170456Z AUTO 09006KT 10SM OVC016 M02/M03 A2968 RMK AO2 SNE00 SLP056 P0000 T10171028 FZRANO
PAWM 170356Z AUTO 10008KT 9SM -SN OVC018 M02/M03 A2970 RMK AO2 SNE10B49 SLP063 P0000 T10171028 FZRANO
PAWM 170256Z AUTO 08006KT 9SM -SN OVC016 M02/M03 A2972 RMK AO2 SLP068 P0000 60000 T10171028 56009 FZRANO
PAWM 170156Z AUTO 11007KT 8SM -SN BKN014 OVC019 M02/M03 A2973 RMK AO2 SLP072 P0000 T10171028 FZRANO
PAWM 170153Z AUTO 10006KT 5SM -SN BR OVC017 M02/M03 A2973 RMK AO2 P0000 FZRANO
PAWM 170135Z AUTO 11007KT 2SM -SN BR OVC019 M02/M03 A2974 RMK AO2 VIS 1 1/4V4 P0000 FZRANO
PAWM 170056Z AUTO 11006KT 9SM -SN OVC015 M02/M03 A2975 RMK AO2 SNE10B30 SLP078 P0000 T10171028 FZRANO
PAWM 162356Z AUTO 11008KT 9SM -SN OVC017 M02/M03 A2976 RMK AO2 SLP083 P0000 60000 T10171033 11017 21033 58017 FZRANO
PAWM 162256Z AUTO 11006KT 4SM -SN BR OVC017 M02/M03 A2979 RMK AO2 SLP093 P0000 T10171033 FZRANO
PAWM 162225Z AUTO 12006KT 3SM -SN BR OVC017 M02/M03 A2979 RMK AO2 P0000 FZRANO
PAWM 162214Z AUTO 12008KT 2SM -SN BR BKN015 OVC021 M02/M03 A2980 RMK AO2 P0000 FZRANO
PAWM 162156Z AUTO 11005KT 6SM -SN BR BKN015 OVC038 M02/M03 A2980 RMK AO2 SLP098 P0000 T10221033 FZRANO
PAWM 162056Z AUTO 12007KT 6SM -SN BR BKN024 OVC055 M02/M03 A2981 RMK AO2 SLP101 P0000 60000 T10221033 56011 FZRANO
PAWM 162024Z AUTO 10008KT 4SM -SN BR BKN026 BKN031 OVC055 M03/M03 A2981 RMK AO2 P0000 FZRANO
PAWM 162016Z AUTO 10006KT 3SM -SN BR SCT026 BKN032 OVC050 M03/M03 A2982 RMK AO2 P0000 FZRANO
PAWM 162009Z AUTO 11009KT 3SM -SN BR BKN028 BKN033 OVC055 M03/M03 A2982 RMK AO2 P0000 FZRANO
PAWM 161956Z AUTO 11009KT 2SM -SN BR OVC030 M03/M04 A2981 RMK AO2 SLP103 P0000 T10281039 FZRANO